Time;durP1;ratioP1;P1;durP2;ratioP2;P2;SDS_P1;SDS_P2;PMS_P1;PMS_P2;Temp;Humidity;BMP_temperature;BMP_pressure;BME280_temperature;BME280_humidity;BME280_pressure;Samples;Min_cycle;Max_cycle;Signal;HPM_P1;HPM_P2
2022/10/10 00:00:41;;;;;;;;;40.00;34.00;;;;;21.42;40.66;100871.16;5064523;28;45335;-72
2022/10/10 00:03:07;;;;;;;;;41.00;33.25;;;;;21.42;40.63;100871.16;5061116;28;45418;-70
2022/10/10 00:05:35;;;;;;;;;40.75;34.00;;;;;21.42;40.58;100876.41;5060421;28;45273;-71
2022/10/10 00:08:00;;;;;;;;;39.00;31.75;;;;;21.40;40.78;100880.94;5074214;28;45490;-69
2022/10/10 00:10:26;;;;;;;;;39.00;31.25;;;;;21.40;40.50;100878.28;5061868;28;45251;-69
2022/10/10 00:12:51;;;;;;;;;31.50;26.75;;;;;21.40;40.73;100878.28;5080809;28;45102;-67
2022/10/10 00:15:16;;;;;;;;;36.00;30.75;;;;;21.40;40.64;100878.28;5059306;28;45288;-69
2022/10/10 00:17:42;;;;;;;;;34.50;30.75;;;;;21.39;40.52;100873.97;5057669;28;45336;-64
2022/10/10 00:20:12;;;;;;;;;29.75;28.75;;;;;21.38;40.84;100870.47;5056888;28;45406;-71
2022/10/10 00:22:38;;;;;;;;;39.00;31.25;;;;;21.37;40.65;100867.91;5039289;28;45264;-72
2022/10/10 00:25:05;;;;;;;;;34.75;30.25;;;;;21.37;40.75;100867.91;5061526;28;45213;-69
2022/10/10 00:27:31;;;;;;;;;33.75;29.75;;;;;21.35;40.69;100870.66;5064559;28;46171;-71
2022/10/10 00:29:57;;;;;;;;;34.75;30.50;;;;;21.35;40.56;100870.66;5060638;28;45393;-67
2022/10/10 00:32:22;;;;;;;;;34.75;30.50;;;;;21.35;40.58;100870.66;5066978;28;45472;-60
2022/10/10 00:34:47;;;;;;;;;31.00;26.75;;;;;21.34;40.95;100862.81;5071378;28;45252;-62
2022/10/10 00:37:13;;;;;;;;;31.75;30.25;;;;;21.34;41.06;100868.94;5064079;28;46957;-69
2022/10/10 00:39:38;;;;;;;;;36.75;30.00;;;;;21.34;40.89;100865.44;5056845;28;45307;-70
2022/10/10 00:42:03;;;;;;;;;27.00;26.50;;;;;21.34;40.88;100868.09;5061364;28;45513;-63
2022/10/10 00:44:29;;;;;;;;;32.25;28.50;;;;;21.33;40.69;100869.06;5067901;28;45406;-70
2022/10/10 00:46:54;;;;;;;;;32.50;30.50;;;;;21.32;41.16;100873.47;5046011;28;46153;-65
2022/10/10 00:49:24;;;;;;;;;30.75;24.50;;;;;21.31;40.74;100866.47;5077050;28;44730;-71
2022/10/10 00:51:56;;;;;;;;;27.50;23.75;;;;;21.31;40.81;100858.56;5076133;27;44885;-60
2022/10/10 00:54:23;;;;;;;;;23.75;23.00;;;;;21.30;40.74;100863.00;5066561;28;45405;-66
2022/10/10 00:56:59;;;;;;;;;35.50;30.50;;;;;21.28;40.76;100856.97;5059840;28;46747;-70
2022/10/10 00:59:25;;;;;;;;;25.00;25.00;;;;;21.30;40.88;100856.88;5056686;28;45995;-65
2022/10/10 01:01:51;;;;;;;;;31.25;24.75;;;;;21.28;41.02;100862.25;5038258;28;45423;-66
2022/10/10 01:04:38;;;;;;;;;28.75;24.00;;;;;21.28;41.05;100854.34;5055721;28;45311;-70
2022/10/10 01:07:08;;;;;;;;;29.75;26.50;;;;;21.27;41.02;100857.91;5061581;28;46217;-70
2022/10/10 01:09:38;;;;;;;;;26.25;24.00;;;;;21.27;41.35;100860.56;5070430;28;45802;-72
2022/10/10 01:12:32;;;;;;;;;27.50;23.75;;;;;21.27;41.27;100857.91;5064653;28;45319;-69
2022/10/10 01:15:03;;;;;;;;;28.00;26.75;;;;;21.26;40.79;100853.56;5056664;28;45568;-65
2022/10/10 01:18:16;;;;;;;;;24.75;21.00;;;;;21.25;41.04;100849.25;5056500;28;45435;-69
2022/10/10 01:20:58;;;;;;;;;22.50;21.25;;;;;21.25;41.05;100848.41;4998891;28;45835;-72
2022/10/10 01:23:49;;;;;;;;;25.25;23.25;;;;;21.25;40.94;100857.16;5065416;28;45466;-72
2022/10/10 01:26:37;;;;;;;;;18.75;16.25;;;;;21.25;40.92;100854.50;5059552;28;45419;-74
2022/10/10 01:29:22;;;;;;;;;23.75;22.25;;;;;21.24;40.94;100847.53;5074631;28;45590;-67
2022/10/10 01:31:52;;;;;;;;;24.00;22.50;;;;;21.23;41.14;100851.09;5059799;28;45425;-64
2022/10/10 01:34:38;;;;;;;;;23.25;19.00;;;;;21.23;41.06;100851.09;5055599;28;45453;-70
2022/10/10 01:37:31;;;;;;;;;23.50;21.25;;;;;21.22;41.20;100848.56;5056036;28;45351;-57
2022/10/10 01:40:03;;;;;;;;;24.75;21.00;;;;;21.23;41.11;100851.09;5055589;28;46967;-63
2022/10/10 01:42:36;;;;;;;;;25.50;22.25;;;;;21.23;40.88;100839.72;5055994;28;46039;-70
2022/10/10 01:45:03;;;;;;;;;23.75;20.00;;;;;21.21;41.16;100845.09;5056090;28;45193;-69
2022/10/10 01:47:28;;;;;;;;;24.50;22.75;;;;;21.21;41.22;100850.38;5055553;28;45321;-64
2022/10/10 01:50:00;;;;;;;;;22.75;22.50;;;;;21.21;41.25;100847.75;5042508;28;50820;-73
2022/10/10 01:52:40;;;;;;;;;23.25;20.00;;;;;21.20;41.24;100846.03;5064033;28;45724;-69
2022/10/10 01:55:56;;;;;;;;;20.75;19.00;;;;;21.20;41.07;100851.31;5075911;28;44739;-73
2022/10/10 01:58:45;;;;;;;;;27.25;25.00;;;;;21.19;41.13;100843.47;5009816;28;45016;-70
2022/10/10 02:01:17;;;;;;;;;23.75;16.75;;;;;21.19;41.27;100846.09;5060945;28;46549;-73
2022/10/10 02:03:47;;;;;;;;;25.00;19.75;;;;;21.18;41.16;100840.00;5060022;28;45422;-67
2022/10/10 02:06:25;;;;;;;;;19.50;19.00;;;;;21.18;41.29;100840.00;5060187;28;45363;-62
2022/10/10 02:08:55;;;;;;;;;18.50;18.00;;;;;21.17;41.01;100835.66;5059595;28;45429;-64
2022/10/10 02:11:23;;;;;;;;;23.75;20.25;;;;;21.16;41.16;100836.59;5064132;28;45852;-62
2022/10/10 02:13:53;;;;;;;;;23.25;20.25;;;;;21.17;41.03;100841.78;5065341;28;45855;-64
2022/10/10 02:16:30;;;;;;;;;21.25;19.00;;;;;21.17;41.16;100848.84;5043830;28;45344;-70
2022/10/10 02:18:58;;;;;;;;;20.00;17.25;;;;;21.16;41.10;100840.09;5063965;28;45217;-71
2022/10/10 02:21:25;;;;;;;;;12.00;8.75;;;;;21.17;41.35;100846.22;5062752;28;46217;-71
2022/10/10 02:23:54;;;;;;;;;22.75;18.00;;;;;21.16;41.50;100848.00;5068159;28;45897;-72
2022/10/10 02:26:22;;;;;;;;;19.00;16.00;;;;;21.15;41.44;100838.41;5069363;28;45843;-72
2022/10/10 02:29:03;;;;;;;;;14.25;14.25;;;;;21.16;41.54;100845.38;5067525;28;45366;-66
2022/10/10 02:32:01;;;;;;;;;20.25;17.50;;;;;21.15;41.29;100837.53;5064616;28;45605;-65
2022/10/10 02:34:33;;;;;;;;;24.50;18.00;;;;;21.14;41.69;100841.97;5042092;28;45464;-66
2022/10/10 02:37:02;;;;;;;;;18.00;16.00;;;;;21.14;41.38;100841.09;5061419;28;45521;-66
2022/10/10 02:39:32;;;;;;;;;17.25;17.25;;;;;21.14;41.17;100833.19;5059672;28;45614;-69
2022/10/10 02:41:57;;;;;;;;;19.00;16.25;;;;;21.14;41.34;100835.84;5059441;28;46430;-69
2022/10/10 02:44:24;;;;;;;;;20.50;16.75;;;;;21.14;41.60;100838.47;5061880;28;45320;-72
2022/10/10 02:46:50;;;;;;;;;19.25;18.75;;;;;21.13;41.45;100842.03;5045852;28;45339;-73
2022/10/10 02:49:23;;;;;;;;;17.25;17.25;;;;;21.14;41.40;100835.84;5059814;28;45371;-57
2022/10/10 02:51:49;;;;;;;;;17.25;14.50;;;;;21.12;40.98;100845.59;5057948;28;46698;-57
2022/10/10 02:54:14;;;;;;;;;17.25;14.50;;;;;21.13;41.56;100839.41;5058295;28;45343;-59
2022/10/10 02:56:39;;;;;;;;;17.50;17.25;;;;;21.12;41.44;100840.34;5058557;28;45295;-58
2022/10/10 02:59:04;;;;;;;;;21.50;16.25;;;;;21.11;41.24;100839.50;5058166;28;45579;-60
2022/10/10 03:01:30;;;;;;;;;15.00;12.00;;;;;21.12;41.54;100837.69;5057927;28;57355;-64
2022/10/10 03:03:55;;;;;;;;;17.00;15.00;;;;;21.11;41.54;100841.31;5056833;28;54602;-67
2022/10/10 03:06:21;;;;;;;;;15.25;15.25;;;;;21.09;41.55;100841.38;5057792;28;45364;-59
2022/10/10 03:08:46;;;;;;;;;19.75;16.50;;;;;21.10;41.75;100839.59;5039838;28;45440;-61
2022/10/10 03:11:11;;;;;;;;;21.50;14.75;;;;;21.09;41.47;100838.75;5041385;28;48097;-57
2022/10/10 03:13:37;;;;;;;;;17.75;16.00;;;;;21.09;41.59;100837.91;5062169;28;45248;-60
2022/10/10 03:16:03;;;;;;;;;19.50;13.00;;;;;21.08;41.41;100837.03;5058377;28;45387;-58
2022/10/10 03:18:28;;;;;;;;;15.00;14.00;;;;;21.09;41.43;100837.91;5057791;28;45469;-62
2022/10/10 03:20:55;;;;;;;;;13.50;13.50;;;;;21.08;41.53;100829.13;5057569;28;46548;-59
2022/10/10 03:23:22;;;;;;;;;15.50;11.50;;;;;21.08;41.68;100836.22;5057803;28;45785;-57
2022/10/10 03:25:47;;;;;;;;;15.25;14.00;;;;;21.08;41.36;100828.31;5057891;28;45315;-61
2022/10/10 03:28:14;;;;;;;;;14.00;12.75;;;;;21.08;41.65;100830.94;5059711;28;45220;-69
2022/10/10 03:30:40;;;;;;;;;16.50;16.00;;;;;21.07;41.62;100831.88;5072047;28;46308;-68
2022/10/10 03:33:06;;;;;;;;;16.25;14.25;;;;;21.06;41.26;100833.63;5073523;28;45079;-60
2022/10/10 03:35:32;;;;;;;;;18.00;15.00;;;;;21.04;41.56;100825.00;5069509;28;45245;-60
2022/10/10 03:37:58;;;;;;;;;15.75;12.25;;;;;21.06;41.36;100832.81;5062859;28;45457;-66
2022/10/10 03:40:24;;;;;;;;;13.75;12.00;;;;;21.05;41.57;100837.25;5062124;28;46582;-68
2022/10/10 03:42:50;;;;;;;;;14.75;14.00;;;;;21.05;41.91;100846.91;5060703;28;45312;-63
2022/10/10 03:45:16;;;;;;;;;17.75;13.75;;;;;21.06;41.25;100838.06;5058504;28;45391;-67
2022/10/10 03:47:42;;;;;;;;;11.00;11.00;;;;;21.05;41.74;100839.88;5059143;28;45567;-66
2022/10/10 03:50:07;;;;;;;;;0.25;0.00;;;;;21.05;41.55;100831.09;5062823;28;46411;-67
2022/10/10 03:52:33;;;;;;;;;15.75;13.50;;;;;21.05;41.54;100834.59;5047264;28;45667;-68
2022/10/10 03:54:58;;;;;;;;;14.50;14.50;;;;;21.04;41.63;100842.56;5060828;28;45836;-68
2022/10/10 03:57:24;;;;;;;;;15.50;14.25;;;;;21.05;41.81;100839.00;5064065;28;45489;-56
2022/10/10 03:59:49;;;;;;;;;13.25;12.00;;;;;21.03;41.68;100835.59;5043595;28;47575;-75
2022/10/10 04:02:15;;;;;;;;;12.00;9.50;;;;;21.03;41.63;100847.00;5040020;28;45482;-62
2022/10/10 04:04:40;;;;;;;;;11.25;11.00;;;;;21.04;41.72;100845.22;5039181;28;45279;-64
2022/10/10 04:07:05;;;;;;;;;8.75;6.00;;;;;21.02;41.56;100842.69;5058216;28;45369;-58
2022/10/10 04:09:31;;;;;;;;;15.25;13.75;;;;;21.03;41.82;100843.50;5060546;28;46709;-66
2022/10/10 04:11:56;;;;;;;;;14.75;13.00;;;;;21.01;41.62;100841.81;5055502;28;45237;-71
2022/10/10 04:14:22;;;;;;;;;10.00;9.25;;;;;21.01;41.57;100833.06;5058516;28;45271;-72
2022/10/10 04:16:47;;;;;;;;;14.50;12.75;;;;;21.01;41.58;100833.06;5068793;28;45566;-61
2022/10/10 04:19:13;;;;;;;;;11.00;11.00;;;;;20.99;41.50;100827.91;5068377;28;46377;-63
2022/10/10 04:21:38;;;;;;;;;11.50;11.25;;;;;21.00;41.80;100826.94;5063796;28;45412;-57
2022/10/10 04:24:04;;;;;;;;;13.75;11.50;;;;;20.99;41.70;100822.63;5057826;28;45445;-60
2022/10/10 04:26:29;;;;;;;;;11.25;11.25;;;;;20.99;41.91;100822.63;5058399;28;45554;-60
2022/10/10 04:28:55;;;;;;;;;10.75;10.00;;;;;21.00;41.44;100823.47;5057464;28;46330;-66
2022/10/10 04:31:20;;;;;;;;;17.50;11.25;;;;;20.99;42.04;100829.66;5057482;28;45405;-63
2022/10/10 04:33:45;;;;;;;;;11.50;10.50;;;;;20.99;41.85;100833.16;5057227;28;45325;-66
2022/10/10 04:36:11;;;;;;;;;13.25;10.75;;;;;20.99;41.46;100827.03;5043575;28;45438;-66
2022/10/10 04:38:36;;;;;;;;;10.00;8.25;;;;;20.98;41.57;100826.19;5059355;28;49969;-65
2022/10/10 04:41:02;;;;;;;;;12.50;11.50;;;;;20.97;41.68;100824.50;5039321;28;45368;-58
2022/10/10 04:43:27;;;;;;;;;10.75;9.75;;;;;20.98;41.60;100836.75;5040002;28;45415;-59
2022/10/10 04:45:56;;;;;;;;;12.25;11.50;;;;;20.97;41.89;100831.53;5057815;28;45208;-64
2022/10/10 04:48:21;;;;;;;;;11.50;9.25;;;;;20.96;42.01;100833.34;5041301;28;45603;-61
2022/10/10 04:50:51;;;;;;;;;12.75;11.00;;;;;20.97;41.38;100828.91;5064821;28;45231;-66
2022/10/10 04:53:17;;;;;;;;;10.50;10.50;;;;;20.97;41.94;100834.16;5064822;28;45347;-59
2022/10/10 04:55:42;;;;;;;;;10.00;9.25;;;;;20.96;42.12;100827.19;5064791;28;45535;-56
2022/10/10 04:58:08;;;;;;;;;8.50;7.75;;;;;20.96;41.69;100833.34;5064551;28;45492;-60
2022/10/10 05:00:33;;;;;;;;;12.75;11.50;;;;;20.96;42.06;100822.78;5072141;28;45824;-62
2022/10/10 05:02:59;;;;;;;;;12.50;9.00;;;;;20.95;41.90;100814.97;5069051;28;45882;-67
2022/10/10 05:05:24;;;;;;;;;9.00;9.00;;;;;20.96;42.06;100811.38;5073097;28;57079;-59
2022/10/10 05:07:49;;;;;;;;;10.25;10.25;;;;;20.94;41.79;100806.22;5079524;28;45519;-62
2022/10/10 05:10:15;;;;;;;;;12.25;9.50;;;;;20.95;41.93;100822.88;5061556;28;44609;-67
2022/10/10 05:12:40;;;;;;;;;10.75;9.00;;;;;20.94;41.73;100824.66;5077417;28;44774;-71
2022/10/10 05:15:06;;;;;;;;;8.33;8.33;;;;;20.94;41.67;100824.66;5076150;28;52544;-65
2022/10/10 05:17:31;;;;;;;;;10.25;8.50;;;;;20.93;41.92;100817.69;5080173;28;45534;-58
2022/10/10 05:19:57;;;;;;;;;11.33;8.00;;;;;20.94;41.53;100822.03;5059001;28;52040;-64
2022/10/10 05:22:22;;;;;;;;;14.25;8.00;;;;;20.94;41.77;100831.72;5075125;28;46667;-69
2022/10/10 05:24:47;;;;;;;;;4.25;4.00;;;;;20.93;41.63;100827.41;5058175;28;44948;-67
2022/10/10 05:27:13;;;;;;;;;13.25;10.75;;;;;20.93;41.74;100828.22;5074140;28;61855;-66
2022/10/10 05:29:38;;;;;;;;;12.00;11.00;;;;;20.93;41.90;100828.22;5068469;28;57960;-72
2022/10/10 05:32:03;;;;;;;;;8.75;8.75;;;;;20.93;42.05;100833.50;5071237;28;45401;-69
2022/10/10 05:34:29;;;;;;;;;10.00;8.75;;;;;20.93;42.00;100838.78;5066642;28;45352;-63
2022/10/10 05:36:55;;;;;;;;;8.75;8.25;;;;;20.91;42.17;100819.56;5063061;28;45410;-60
2022/10/10 05:39:21;;;;;;;;;8.00;6.00;;;;;20.92;41.98;100825.69;5045570;28;45782;-64
2022/10/10 05:41:46;;;;;;;;;12.00;10.00;;;;;20.92;42.03;100831.81;5061446;28;45288;-63
2022/10/10 05:44:12;;;;;;;;;8.25;7.25;;;;;20.90;41.63;100825.75;5065583;28;45481;-67
2022/10/10 05:46:37;;;;;;;;;8.25;8.25;;;;;20.90;41.90;100825.75;5060637;28;46464;-61
2022/10/10 05:49:02;;;;;;;;;9.50;9.25;;;;;20.89;41.77;100820.59;5062792;28;45322;-65
2022/10/10 05:51:28;;;;;;;;;11.50;9.00;;;;;20.87;41.68;100825.97;5061181;28;45380;-63
2022/10/10 05:53:53;;;;;;;;;9.75;7.50;;;;;20.87;42.28;100822.47;5076785;28;45106;-58
2022/10/10 05:56:19;;;;;;;;;10.25;8.75;;;;;20.85;41.69;100814.66;5079064;28;47152;-62
2022/10/10 05:58:44;;;;;;;;;8.75;8.75;;;;;20.84;42.01;100815.59;5066780;28;45316;-58
2022/10/10 06:01:10;;;;;;;;;13.50;9.00;;;;;20.82;41.99;100820.97;5066538;28;45426;-64
2022/10/10 06:03:35;;;;;;;;;10.75;10.00;;;;;20.81;42.32;100824.53;5062151;28;45220;-61
2022/10/10 06:06:01;;;;;;;;;10.00;8.75;;;;;20.80;42.41;100824.59;5042104;28;48598;-62
2022/10/10 06:08:27;;;;;;;;;24.25;24.25;;;;;20.76;41.92;100828.34;5059834;28;45412;-66
2022/10/10 06:10:52;;;;;;;;;19.00;18.25;;;;;20.71;42.40;100818.06;5073366;28;44777;-65
2022/10/10 06:13:19;;;;;;;;;19.75;15.75;;;;;20.70;42.12;100827.72;5062824;28;45513;-64
2022/10/10 06:15:45;;;;;;;;;15.50;14.50;;;;;20.65;42.28;100824.50;5060175;28;47008;-65
2022/10/10 06:18:11;;;;;;;;;17.50;12.25;;;;;20.64;42.54;100833.34;5059452;28;45843;-63
2022/10/10 06:20:38;;;;;;;;;17.25;15.25;;;;;20.62;42.30;100829.94;5041327;28;45431;-62
2022/10/10 06:23:05;;;;;;;;;13.25;13.25;;;;;20.59;42.83;100843.28;5059212;28;45716;-65
2022/10/10 06:25:35;;;;;;;;;14.25;12.00;;;;;20.57;42.60;100842.50;5068194;28;46464;-64
2022/10/10 06:28:00;;;;;;;;;14.50;10.50;;;;;20.57;42.89;100839.88;5071814;28;45390;-64
2022/10/10 06:30:26;;;;;;;;;14.25;13.25;;;;;20.55;42.49;100839.13;5062615;28;45302;-65
2022/10/10 06:32:52;;;;;;;;;12.75;12.25;;;;;20.54;42.64;100840.91;5060149;28;45501;-65
2022/10/10 06:35:17;;;;;;;;;15.50;11.00;;;;;20.55;42.41;100847.03;5059594;28;47741;-65
2022/10/10 06:37:43;;;;;;;;;56.75;45.50;;;;;20.54;42.71;100847.97;5060257;28;45445;-64
2022/10/10 06:40:08;;;;;;;;;79.00;67.67;;;;;20.53;42.97;100851.53;5059793;28;45233;-63
2022/10/10 06:42:34;;;;;;;;;64.00;51.50;;;;;20.52;43.12;100852.44;5073431;28;44872;-70
2022/10/10 06:44:59;;;;;;;;;71.50;56.50;;;;;20.53;43.11;100843.63;5076202;28;45993;-56
2022/10/10 06:47:25;;;;;;;;;66.25;52.75;;;;;20.52;43.04;100852.44;5060270;28;45652;-65
2022/10/10 06:49:50;;;;;;;;;65.00;52.50;;;;;20.52;43.02;100850.66;5059682;28;45273;-64
2022/10/10 06:52:15;;;;;;;;;61.00;49.25;;;;;20.52;42.85;100852.44;5059543;28;45610;-63
2022/10/10 06:54:41;;;;;;;;;55.50;44.75;;;;;20.51;42.86;100854.22;5064943;28;46374;-64
2022/10/10 06:57:06;;;;;;;;;54.25;42.25;;;;;20.51;43.17;100859.47;5061854;28;45390;-62
2022/10/10 06:59:32;;;;;;;;;55.75;43.50;;;;;20.52;43.49;100866.44;5058833;28;45332;-63
2022/10/10 07:01:57;;;;;;;;;53.00;42.75;;;;;20.52;43.56;100871.72;5058616;28;45478;-64
2022/10/10 07:04:22;;;;;;;;;39.00;34.25;;;;;20.53;43.59;100883.94;5040482;28;48098;-67
2022/10/10 07:06:48;;;;;;;;;24.50;20.50;;;;;20.48;43.19;100888.63;5057373;28;45649;-62
2022/10/10 07:09:13;;;;;;;;;23.25;19.50;;;;;20.41;43.11;100889.88;5057040;28;45437;-62
2022/10/10 07:11:44;;;;;;;;;20.50;18.75;;;;;20.34;43.34;100891.16;5057572;28;45459;-63
2022/10/10 07:14:09;;;;;;;;;18.00;17.50;;;;;20.24;43.57;100896.06;5057844;28;46265;-66
2022/10/10 07:16:34;;;;;;;;;17.75;16.25;;;;;20.17;43.33;100892.06;5058626;28;45306;-67
2022/10/10 07:19:00;;;;;;;;;20.25;16.75;;;;;20.10;43.75;100898.59;5040016;28;45550;-63
2022/10/10 07:21:26;;;;;;;;;15.75;13.00;;;;;20.02;43.92;100897.19;5061713;28;45634;-63
2022/10/10 07:23:51;;;;;;;;;13.75;12.75;;;;;19.98;44.00;100905.31;5065146;28;46396;-64
2022/10/10 07:26:20;;;;;;;;;13.75;12.00;;;;;19.90;44.28;100901.31;5060256;28;45343;-66
2022/10/10 07:28:46;;;;;;;;;16.75;12.50;;;;;19.88;44.62;100902.34;5067777;28;45269;-64
2022/10/10 07:31:12;;;;;;;;;14.50;12.50;;;;;19.85;44.21;100910.34;5067766;28;45375;-66
2022/10/10 07:33:45;;;;;;;;;12.00;12.00;;;;;19.83;44.48;100896.41;5058768;28;54814;-69
2022/10/10 07:36:11;;;;;;;;;12.25;12.25;;;;;19.81;44.81;100890.38;5058917;28;45847;-70
2022/10/10 07:38:37;;;;;;;;;13.50;13.00;;;;;19.76;45.06;100888.84;5058716;28;45312;-67
2022/10/10 07:41:08;;;;;;;;;11.25;11.25;;;;;19.74;44.73;100895.97;5040488;28;45320;-66
2022/10/10 07:43:34;;;;;;;;;14.00;13.25;;;;;19.68;45.02;100893.63;5058256;28;47270;-64
2022/10/10 07:46:00;;;;;;;;;14.75;13.50;;;;;19.69;45.01;100905.84;5057827;28;45324;-68
2022/10/10 07:48:25;;;;;;;;;10.50;10.50;;;;;19.66;45.55;100908.66;5059054;28;45414;-65
2022/10/10 07:50:51;;;;;;;;;17.25;13.00;;;;;19.66;45.42;100921.81;5064174;28;45225;-61
2022/10/10 07:53:17;;;;;;;;;15.75;12.00;;;;;19.68;45.21;100922.53;5060043;28;46424;-65
2022/10/10 07:55:42;;;;;;;;;14.25;11.50;;;;;19.72;45.13;100915.38;5058754;28;45387;-65
2022/10/10 07:58:11;;;;;;;;;13.75;11.00;;;;;19.75;44.86;100918.69;5058261;28;45747;-64
2022/10/10 08:00:40;;;;;;;;;12.00;11.25;;;;;19.81;44.99;100922.78;5058593;28;45380;-65
2022/10/10 08:03:07;;;;;;;;;13.00;11.50;;;;;19.85;45.31;100918.22;5057760;28;46517;-63
2022/10/10 08:05:33;;;;;;;;;12.75;10.50;;;;;19.88;44.90;100910.22;5058327;28;46048;-64
2022/10/10 08:07:58;;;;;;;;;13.25;12.25;;;;;19.93;45.52;100916.06;5057983;28;45334;-59
2022/10/10 08:10:24;;;;;;;;;12.75;9.50;;;;;19.96;45.41;100917.69;5057480;28;45744;-59
2022/10/10 08:12:49;;;;;;;;;12.75;10.00;;;;;19.99;44.93;100915.78;5058082;28;46278;-56
2022/10/10 08:15:14;;;;;;;;;15.75;11.25;;;;;20.02;45.03;100918.22;5058505;28;45225;-53
2022/10/10 08:17:40;;;;;;;;;11.00;10.00;;;;;20.05;45.27;100925.97;5063495;28;45393;-58
2022/10/10 08:20:06;;;;;;;;;13.25;11.25;;;;;20.10;45.13;100920.47;5060616;28;45716;-59
2022/10/10 08:22:31;;;;;;;;;13.25;10.00;;;;;20.14;45.41;100915.88;5040138;28;45731;-59
2022/10/10 08:24:56;;;;;;;;;11.25;10.00;;;;;20.16;45.56;100924.56;5039688;28;45527;-61
2022/10/10 08:27:22;;;;;;;;;12.00;11.25;;;;;20.19;45.44;100919.16;5058289;28;45463;-61
2022/10/10 08:29:48;;;;;;;;;12.25;10.00;;;;;20.22;45.19;100937.41;5058492;28;45656;-60
2022/10/10 08:32:13;;;;;;;;;10.75;10.75;;;;;20.25;45.24;100947.75;5060936;28;46407;-58
2022/10/10 08:34:38;;;;;;;;;10.25;10.25;;;;;20.27;45.24;100952.97;5070495;28;45326;-62
2022/10/10 08:37:04;;;;;;;;;12.00;9.25;;;;;20.29;44.88;100959.84;5048871;28;45312;-57
2022/10/10 08:39:29;;;;;;;;;10.00;10.00;;;;;20.33;44.69;100957.88;5059024;28;45261;-62
2022/10/10 08:41:58;;;;;;;;;10.50;10.00;;;;;20.35;44.81;100954.22;5057365;28;45326;-56
2022/10/10 08:44:26;;;;;;;;;15.00;10.00;;;;;20.38;44.97;100956.72;5067401;28;45861;-65
2022/10/10 08:47:08;;;;;;;;;13.00;10.00;;;;;20.41;45.07;100957.50;5074792;28;44757;-59
2022/10/10 08:49:53;;;;;;;;;11.50;9.75;;;;;20.41;45.41;100949.59;5058525;28;44758;-64
2022/10/10 08:52:49;;;;;;;;;10.00;9.50;;;;;20.44;44.62;100962.59;5059605;28;45445;-63
2022/10/10 08:55:23;;;;;;;;;12.25;10.00;;;;;20.45;44.56;100966.94;5057946;28;45842;-61
2022/10/10 08:58:10;;;;;;;;;13.50;10.00;;;;;20.48;45.24;100983.41;5039339;28;45340;-64
2022/10/10 09:00:45;;;;;;;;;17.00;10.50;;;;;20.50;44.60;100983.31;5057871;28;45307;-64
2022/10/10 09:03:38;;;;;;;;;11.25;10.50;;;;;20.51;44.89;100970.06;5057321;28;46244;-62
2022/10/10 09:06:28;;;;;;;;;10.75;10.75;;;;;20.54;45.10;100979.59;5059249;28;45483;-66
2022/10/10 09:09:27;;;;;;;;;14.00;10.00;;;;;20.56;44.72;100967.19;5075975;28;44741;-63
2022/10/10 09:12:25;;;;;;;;;11.75;10.00;;;;;20.58;44.97;100975.03;5078396;28;44762;-64
2022/10/10 09:14:50;;;;;;;;;12.25;9.00;;;;;20.57;44.68;100970.69;5060081;28;46354;-58
2022/10/10 09:17:18;;;;;;;;;9.67;9.00;;;;;20.58;45.11;100978.50;5062316;28;44725;-57
2022/10/10 09:19:52;;;;;;;;;8.25;7.75;;;;;20.60;44.93;100983.69;5073614;28;45901;-64
2022/10/10 09:22:24;;;;;;;;;10.25;10.00;;;;;20.61;44.87;100985.41;5075250;28;45525;-62
2022/10/10 09:25:01;;;;;;;;;12.75;8.50;;;;;20.63;44.84;100994.91;5052113;28;46910;-64
2022/10/10 09:27:31;;;;;;;;;9.75;9.50;;;;;20.64;44.87;100987.84;5052027;28;45173;-58
2022/10/10 09:30:16;;;;;;;;;10.00;9.00;;;;;20.65;45.19;100987.78;5042639;28;45411;-59
2022/10/10 09:32:54;;;;;;;;;12.00;11.50;;;;;20.67;45.14;100985.06;5058645;28;45395;-60
2022/10/10 09:35:29;;;;;;;;;13.25;10.00;;;;;20.66;45.36;100984.22;5056460;28;46931;-63
2022/10/10 09:38:12;;;;;;;;;12.25;8.75;;;;;20.67;45.00;100999.06;5038462;28;45695;-56
2022/10/10 09:40:51;;;;;;;;;11.00;10.50;;;;;20.70;45.16;101014.72;5056445;28;45496;-63
2022/10/10 09:43:20;;;;;;;;;12.00;9.75;;;;;20.71;44.94;101018.22;5057988;28;45304;-61
2022/10/10 09:45:52;;;;;;;;;10.25;8.50;;;;;20.73;45.30;101023.41;5040008;28;47295;-60
2022/10/10 09:48:21;;;;;;;;;12.50;9.25;;;;;20.76;44.87;101031.16;5057421;28;45913;-65
2022/10/10 09:50:46;;;;;;;;;10.50;10.50;;;;;20.76;45.42;101023.28;5057624;28;45335;-58
2022/10/10 09:53:14;;;;;;;;;8.00;8.00;;;;;20.75;45.59;101040.00;5048265;28;45609;-61
2022/10/10 09:55:41;;;;;;;;;10.00;8.50;;;;;20.77;45.05;101043.41;5074332;28;45624;-61
2022/10/10 09:58:13;;;;;;;;;10.00;8.00;;;;;20.77;44.90;101038.16;5074657;28;45719;-64
2022/10/10 10:00:39;;;;;;;;;12.75;9.50;;;;;20.79;45.34;101041.53;5059826;28;45259;-60
2022/10/10 10:03:07;;;;;;;;;9.00;9.00;;;;;20.79;45.49;101049.44;5057961;28;45388;-60
2022/10/10 10:05:33;;;;;;;;;12.00;8.00;;;;;20.79;45.64;101049.44;5063624;28;45900;-61
2022/10/10 10:07:58;;;;;;;;;9.50;8.25;;;;;20.80;45.24;101045.84;5063224;28;45313;-61
2022/10/10 10:10:26;;;;;;;;;8.25;7.00;;;;;20.79;45.34;101042.38;5071368;28;45425;-58
2022/10/10 10:12:53;;;;;;;;;10.50;8.00;;;;;20.82;45.25;101051.91;5077041;28;44888;-59
2022/10/10 10:15:19;;;;;;;;;9.00;8.25;;;;;20.82;45.78;101044.88;5074388;28;46562;-58
2022/10/10 10:17:44;;;;;;;;;10.00;8.50;;;;;20.82;45.29;101044.00;5072005;28;45355;-62
2022/10/10 10:20:35;;;;;;;;;8.25;8.25;;;;;20.83;45.82;101049.22;5072845;28;45224;-61
2022/10/10 10:23:00;;;;;;;;;11.00;9.00;;;;;20.83;45.74;101049.22;5050427;28;45517;-65
2022/10/10 10:25:35;;;;;;;;;8.75;7.00;;;;;20.85;45.37;101051.75;5059507;28;47380;-61
2022/10/10 10:28:10;;;;;;;;;8.00;6.75;;;;;20.84;45.37;101061.41;5059547;28;45308;-60
2022/10/10 10:30:36;;;;;;;;;12.25;10.25;;;;;20.85;45.81;101054.38;5059540;28;45372;-62
2022/10/10 10:33:27;;;;;;;;;9.00;7.50;;;;;20.87;45.67;101060.44;5059585;28;45537;-59
2022/10/10 10:36:33;;;;;;;;;9.75;8.00;;;;;20.88;45.67;101069.16;5061832;28;45554;-60
2022/10/10 10:39:23;;;;;;;;;11.00;9.00;;;;;20.89;45.84;101071.72;5061134;28;45890;-60
2022/10/10 10:41:59;;;;;;;;;11.75;8.75;;;;;20.88;45.94;101077.94;5059940;28;45229;-64
2022/10/10 10:44:32;;;;;;;;;12.50;8.75;;;;;20.89;45.59;101074.34;5059533;28;45717;-61
2022/10/10 10:47:19;;;;;;;;;11.75;9.25;;;;;20.92;45.56;101081.25;5058318;28;46425;-60
2022/10/10 10:50:24;;;;;;;;;10.50;9.50;;;;;20.92;45.86;101084.72;5058266;28;45773;-63
2022/10/10 10:52:55;;;;;;;;;7.50;7.25;;;;;20.93;46.16;101090.88;5045859;28;45550;-66
2022/10/10 10:55:27;;;;;;;;;9.00;8.25;;;;;20.94;45.84;101092.56;5065877;28;45359;-60
2022/10/10 10:58:25;;;;;;;;;13.00;8.75;;;;;20.94;46.28;101096.03;5068898;28;47731;-63
2022/10/10 11:00:55;;;;;;;;;14.50;11.00;;;;;20.95;45.77;101105.66;5059007;28;45893;-62
2022/10/10 11:03:32;;;;;;;;;12.75;8.75;;;;;20.96;46.18;101102.09;5066840;28;45765;-64
2022/10/10 11:06:09;;;;;;;;;15.25;10.00;;;;;20.93;46.30;101099.59;5064976;28;45285;-69
2022/10/10 11:08:53;;;;;;;;;16.25;10.00;;;;;20.95;46.76;101100.38;5059829;28;45649;-70
2022/10/10 11:11:30;;;;;;;;;20.00;10.00;;;;;20.94;46.48;101106.59;5058427;28;45465;-67
2022/10/10 11:14:11;;;;;;;;;11.25;6.00;;;;;20.96;46.72;101109.13;5058718;28;45387;-66
2022/10/10 11:16:59;;;;;;;;;15.25;10.25;;;;;20.96;46.43;101112.63;5058106;28;45193;-68
2022/10/10 11:19:32;;;;;;;;;13.75;12.00;;;;;20.97;46.83;101124.88;5057431;28;46130;-69
2022/10/10 11:22:10;;;;;;;;;15.75;10.75;;;;;20.92;47.13;101108.44;5057366;28;45880;-68
2022/10/10 11:24:50;;;;;;;;;11.75;10.00;;;;;20.95;46.72;101113.56;5058037;28;45408;-67